createdAt,value
2019-05-01T00:01:26.491Z,92.39
2019-05-01T00:04:13.251Z,91.61
2019-05-01T00:06:45.358Z,90.90
2019-05-01T00:09:13.541Z,91.15
2019-05-01T00:11:42.296Z,91.37
2019-05-01T00:14:10.516Z,90.55
2019-05-01T00:16:38.499Z,90.53
2019-05-01T00:19:07.187Z,90.97
2019-05-01T00:21:35.742Z,91.05
2019-05-01T00:24:04.056Z,91.77
2019-05-01T00:26:31.978Z,91.95
2019-05-01T00:29:00.315Z,92.89
2019-05-01T00:31:28.498Z,92.96
2019-05-01T00:33:57.027Z,93.20
2019-05-01T00:36:25.271Z,93.05
2019-05-01T00:38:53.502Z,93.23
2019-05-01T00:41:21.408Z,93.48
2019-05-01T00:43:49.344Z,93.69
2019-05-01T00:46:18.113Z,93.67
2019-05-01T00:48:46.364Z,93.58
2019-05-01T00:51:15.051Z,93.80
2019-05-01T00:53:43.336Z,94.02
2019-05-01T00:56:23.517Z,94.43
2019-05-01T00:59:01.197Z,94.55
2019-05-01T01:02:05.294Z,94.67
2019-05-01T01:04:33.559Z,94.10
2019-05-01T01:07:02.168Z,93.81
2019-05-01T01:09:30.732Z,93.65
2019-05-01T01:11:59.323Z,93.57
2019-05-01T01:14:27.227Z,93.58
2019-05-01T01:16:55.415Z,93.25
2019-05-01T01:19:23.710Z,92.96
2019-05-01T01:21:52.391Z,92.81
2019-05-01T01:24:20.342Z,92.61
2019-05-01T01:26:48.927Z,92.56
2019-05-01T01:29:16.897Z,92.24
2019-05-01T01:31:45.210Z,92.12
2019-05-01T01:34:13.463Z,92.40
2019-05-01T01:36:41.942Z,92.77
2019-05-01T01:39:10.229Z,92.67
2019-05-01T01:41:39.052Z,92.16
2019-05-01T01:44:16.534Z,92.46
2019-05-01T01:46:45.124Z,92.86
2019-05-01T01:49:13.711Z,92.69
2019-05-01T01:51:42.522Z,92.57
2019-05-01T01:54:10.961Z,92.20
2019-05-01T01:56:38.967Z,92.53
2019-05-01T01:59:06.969Z,92.48
2019-05-01T02:01:52.608Z,92.50
2019-05-01T02:04:40.199Z,92.25
2019-05-01T02:07:08.492Z,91.73
2019-05-01T02:09:37.097Z,91.04
2019-05-01T02:12:05.788Z,91.45
2019-05-01T02:14:34.161Z,91.73
2019-05-01T02:17:02.130Z,92.04
2019-05-01T02:19:30.127Z,91.91
2019-05-01T02:21:58.404Z,92.25
2019-05-01T02:24:27.002Z,92.46
2019-05-01T02:26:57.089Z,92.71
2019-05-01T02:29:33.784Z,93.35
2019-05-01T02:32:02.069Z,93.66
2019-05-01T02:34:31.140Z,93.71
2019-05-01T02:37:01.206Z,93.96
2019-05-01T02:39:31.068Z,94.20
2019-05-01T02:42:01.226Z,93.73
2019-05-01T02:44:35.605Z,92.74
2019-05-01T02:47:06.563Z,92.75
2019-05-01T02:49:39.645Z,93.51
2019-05-01T02:52:09.817Z,93.51
2019-05-01T02:54:38.851Z,93.46
2019-05-01T02:57:11.007Z,93.71
2019-05-01T02:59:41.599Z,94.03
2019-05-01T03:02:10.355Z,93.36
2019-05-01T03:04:38.146Z,92.88
2019-05-01T03:07:06.972Z,92.96
2019-05-01T03:09:35.560Z,93.17
2019-05-01T03:12:04.382Z,93.51
2019-05-01T03:14:35.145Z,93.41
2019-05-01T03:17:06.644Z,92.83
2019-05-01T03:19:52.448Z,92.37
2019-05-01T03:22:39.971Z,92.36
2019-05-01T03:25:08.658Z,92.46
2019-05-01T03:27:37.353Z,91.87
2019-05-01T03:30:05.648Z,92.25
2019-05-01T03:32:34.309Z,92.70
2019-05-01T03:35:02.410Z,92.34
2019-05-01T03:37:30.910Z,91.96
2019-05-01T03:39:59.842Z,91.56
2019-05-01T03:42:28.198Z,91.58
2019-05-01T03:44:56.178Z,91.39
2019-05-01T03:47:24.825Z,91.16
2019-05-01T03:49:53.385Z,91.87
2019-05-01T03:52:21.431Z,91.74
2019-05-01T03:54:49.308Z,91.81
2019-05-01T03:57:18.200Z,92.40
2019-05-01T03:59:46.059Z,92.71
2019-05-01T04:02:37.136Z,93.04
2019-05-01T04:05:05.462Z,93.25
2019-05-01T04:07:36.464Z,93.33
2019-05-01T04:10:04.984Z,93.31
2019-05-01T04:12:33.187Z,93.10
2019-05-01T04:15:01.527Z,92.47
2019-05-01T04:17:40.943Z,92.01
2019-05-01T04:20:09.887Z,92.07
2019-05-01T04:22:38.231Z,92.08
2019-05-01T04:25:06.203Z,91.62
2019-05-01T04:27:37.068Z,90.91
2019-05-01T04:30:13.926Z,89.97
2019-05-01T04:32:51.795Z,90.65
2019-05-01T04:35:21.025Z,91.07
2019-05-01T04:37:49.923Z,91.34
2019-05-01T04:40:19.275Z,91.47
2019-05-01T04:42:50.381Z,91.82
2019-05-01T04:45:19.582Z,92.04
2019-05-01T04:47:47.843Z,92.21
2019-05-01T04:50:16.563Z,92.18
2019-05-01T04:52:45.250Z,92.20
2019-05-01T04:55:13.830Z,92.05
2019-05-01T04:57:42.120Z,91.96
2019-05-01T05:00:10.589Z,91.20
2019-05-01T05:02:43.917Z,91.20
2019-05-01T05:05:11.524Z,91.05
2019-05-01T05:07:39.743Z,91.12
2019-05-01T05:10:08.282Z,91.27
2019-05-01T05:12:58.819Z,91.25
2019-05-01T05:15:48.803Z,89.91
2019-05-01T05:18:17.148Z,89.78
2019-05-01T05:20:45.494Z,89.79
2019-05-01T05:23:13.206Z,89.87
2019-05-01T05:25:42.047Z,89.85
2019-05-01T05:28:10.648Z,90.12
2019-05-01T05:30:39.559Z,90.44
2019-05-01T05:33:18.135Z,90.71
2019-05-01T05:35:41.306Z,90.82
2019-05-01T05:38:34.748Z,90.91
2019-05-01T05:41:03.402Z,90.99
2019-05-01T05:43:58.652Z,90.99
2019-05-01T05:46:27.368Z,90.91
2019-05-01T05:48:55.596Z,90.26
2019-05-01T05:51:43.473Z,90.39
2019-05-01T05:54:31.398Z,89.66
2019-05-01T05:57:06.538Z,89.55
2019-05-01T05:59:38.785Z,89.31
2019-05-01T06:02:28.655Z,89.52
2019-05-01T06:05:37.363Z,89.75
2019-05-01T06:08:13.259Z,89.29
2019-05-01T06:10:49.103Z,89.66
2019-05-01T06:13:36.595Z,90.09
2019-05-01T06:16:17.613Z,90.55
2019-05-01T06:18:54.944Z,90.83
2019-05-01T06:21:44.939Z,90.96
2019-05-01T06:24:21.537Z,91.06
2019-05-01T06:26:50.197Z,90.73
2019-05-01T06:29:18.072Z,90.73
2019-05-01T06:31:46.363Z,90.95
2019-05-01T06:34:14.437Z,91.26
2019-05-01T06:36:44.268Z,91.35
2019-05-01T06:39:13.442Z,91.66
2019-05-01T06:41:43.868Z,91.51
2019-05-01T06:44:18.293Z,91.52
2019-05-01T06:47:06.040Z,91.62
2019-05-01T06:50:06.042Z,91.59
2019-05-01T06:52:33.745Z,91.34
2019-05-01T06:55:02.500Z,91.39
2019-05-01T06:57:30.784Z,91.39
2019-05-01T07:00:03.398Z,91.34
2019-05-01T07:02:34.995Z,90.89
2019-05-01T07:05:02.013Z,90.52
2019-05-01T07:07:31.848Z,89.83
2019-05-01T07:10:01.241Z,89.42
2019-05-01T07:12:30.829Z,88.30
2019-05-01T07:14:59.423Z,87.53
2019-05-01T07:17:27.379Z,86.71
2019-05-01T07:20:11.755Z,82.26
2019-05-01T07:22:42.266Z,81.50
2019-05-01T07:25:10.338Z,78.18
2019-05-01T07:27:38.529Z,77.01
2019-05-01T07:30:44.752Z,76.78
2019-05-01T07:33:16.720Z,75.17
2019-05-01T07:35:44.325Z,72.67
2019-05-01T07:38:12.884Z,71.57
2019-05-01T07:40:41.560Z,67.95
2019-05-01T07:43:28.959Z,70.51
2019-05-01T07:46:09.328Z,72.09
2019-05-01T07:48:41.533Z,71.95
2019-05-01T07:51:09.001Z,71.19
2019-05-01T07:53:37.874Z,70.38
2019-05-01T07:56:07.733Z,69.85
2019-05-01T07:58:36.059Z,66.03
2019-05-01T08:01:13.246Z,69.12
2019-05-01T08:04:13.866Z,62.87
2019-05-01T08:06:39.801Z,64.59
2019-05-01T08:09:11.317Z,59.79
2019-05-01T08:11:39.172Z,63.42
2019-05-01T08:14:11.685Z,62.59
2019-05-01T08:16:42.415Z,65.72
2019-05-01T08:19:23.029Z,63.68
2019-05-01T08:22:01.597Z,63.74
2019-05-01T08:24:28.769Z,63.58
2019-05-01T08:26:57.381Z,54.70
2019-05-01T08:29:43.806Z,52.90
2019-05-01T08:32:26.591Z,54.67
2019-05-01T08:35:00.547Z,56.03
2019-05-01T08:37:27.327Z,56.34
2019-05-01T08:39:55.273Z,59.11
2019-05-01T08:42:23.453Z,59.46
2019-05-01T08:45:13.490Z,52.38
2019-05-01T08:47:43.615Z,50.21
2019-05-01T08:50:14.369Z,54.11
2019-05-01T08:52:47.342Z,53.19
2019-05-01T08:55:13.573Z,51.33
2019-05-01T08:57:42.238Z,58.12
2019-05-01T09:00:11.273Z,56.69
2019-05-01T09:02:41.740Z,57.96
2019-05-01T09:05:27.731Z,54.43
2019-05-01T09:07:40.531Z,54.45
2019-05-01T09:10:09.934Z,52.46
2019-05-01T09:12:38.552Z,54.21
2019-05-01T09:15:07.300Z,57.96
2019-05-01T09:17:37.560Z,57.72
2019-05-01T09:20:06.579Z,54.82
2019-05-01T09:22:34.913Z,53.46
2019-05-01T09:25:03.065Z,54.87
2019-05-01T09:27:39.749Z,58.66
2019-05-01T09:30:21.763Z,59.47
2019-05-01T09:32:54.486Z,56.47
2019-05-01T09:35:22.336Z,53.28
2019-05-01T09:37:50.408Z,51.30
2019-05-01T09:40:19.216Z,48.48
2019-05-01T09:42:47.358Z,55.72
2019-05-01T09:45:16.155Z,54.66
2019-05-01T09:47:44.540Z,56.60
2019-05-01T09:50:12.575Z,52.44
2019-05-01T09:52:49.395Z,52.24
2019-05-01T09:55:25.006Z,51.48
2019-05-01T09:57:53.586Z,57.37
2019-05-01T10:00:28.575Z,52.87
2019-05-01T10:02:56.454Z,52.14
2019-05-01T10:05:29.066Z,57.55
2019-05-01T10:08:00.064Z,51.00
2019-05-01T10:10:29.352Z,49.59
2019-05-01T10:12:56.187Z,48.63
2019-05-01T10:15:24.461Z,48.15
2019-05-01T10:17:53.198Z,51.94
2019-05-01T10:20:20.758Z,53.15
2019-05-01T10:22:48.951Z,52.58
2019-05-01T10:25:17.221Z,50.79
2019-05-01T10:27:52.980Z,53.74
2019-05-01T10:30:44.016Z,51.48
2019-05-01T10:33:23.555Z,51.63
2019-05-01T10:36:18.874Z,52.27
2019-05-01T10:38:45.099Z,47.93
2019-05-01T10:41:13.213Z,41.09
2019-05-01T10:43:41.069Z,49.63
2019-05-01T10:46:09.052Z,42.34
2019-05-01T10:48:37.291Z,41.94
2019-05-01T10:51:05.935Z,41.15
2019-05-01T10:53:34.131Z,38.27
2019-05-01T10:56:02.848Z,42.10
2019-05-01T10:58:31.434Z,37.35
2019-05-01T11:01:07.849Z,37.24
2019-05-01T11:03:36.391Z,41.01
2019-05-01T11:06:04.590Z,43.71
2019-05-01T11:08:32.921Z,40.66
2019-05-01T11:11:01.210Z,35.99
2019-05-01T11:13:29.210Z,40.80
2019-05-01T11:15:57.871Z,40.75
2019-05-01T11:18:26.211Z,35.56
2019-05-01T11:20:54.816Z,40.25
2019-05-01T11:23:23.070Z,43.58
2019-05-01T11:25:51.029Z,41.71
2019-05-01T11:28:19.556Z,35.28
2019-05-01T11:30:47.475Z,33.47
2019-05-01T11:33:32.776Z,37.49
2019-05-01T11:36:24.813Z,41.75
2019-05-01T11:38:57.572Z,42.59
2019-05-01T11:41:35.316Z,43.33
2019-05-01T11:44:03.832Z,38.17
2019-05-01T11:46:31.399Z,43.08
2019-05-01T11:49:00.155Z,43.71
2019-05-01T11:51:28.570Z,37.51
2019-05-01T11:53:57.096Z,35.47
2019-05-01T11:56:25.445Z,38.82
2019-05-01T11:58:53.123Z,38.82
2019-05-01T12:01:23.306Z,43.67
2019-05-01T12:03:51.971Z,40.46
2019-05-01T12:06:23.147Z,41.22
2019-05-01T12:08:49.646Z,38.09
2019-05-01T12:11:19.701Z,38.09
2019-05-01T12:13:48.439Z,42.47
2019-05-01T12:16:26.024Z,42.79
2019-05-01T12:18:54.411Z,42.79
2019-05-01T12:21:22.595Z,43.95
2019-05-01T12:23:50.801Z,36.01
2019-05-01T12:26:19.384Z,38.94
2019-05-01T12:28:47.327Z,36.08
2019-05-01T12:31:15.613Z,38.72
2019-05-01T12:33:43.180Z,33.59
2019-05-01T12:36:11.152Z,35.75
2019-05-01T12:38:39.434Z,38.89
2019-05-01T12:41:39.231Z,36.26
2019-05-01T12:44:07.815Z,37.95
2019-05-01T12:46:55.360Z,32.64
2019-05-01T12:49:23.232Z,35.21
2019-05-01T12:51:54.760Z,36.98
2019-05-01T12:54:33.819Z,35.34
2019-05-01T12:57:01.966Z,31.90
2019-05-01T12:59:30.679Z,30.06
2019-05-01T13:01:58.896Z,35.06
2019-05-01T13:04:27.127Z,32.45
2019-05-01T13:06:56.160Z,32.63
2019-05-01T13:09:24.939Z,29.56
2019-05-01T13:11:53.329Z,35.79
2019-05-01T13:14:21.990Z,35.32
2019-05-01T13:16:49.942Z,35.76
2019-05-01T13:19:18.164Z,38.47
2019-05-01T13:21:46.824Z,36.09
2019-05-01T13:24:15.142Z,34.31
2019-05-01T13:26:51.606Z,33.06
2019-05-01T13:29:24.538Z,28.48
2019-05-01T13:32:12.002Z,28.48
2019-05-01T13:34:39.994Z,29.48
2019-05-01T13:37:08.157Z,29.57
2019-05-01T13:39:36.030Z,31.90
2019-05-01T13:42:04.867Z,32.58
2019-05-01T13:44:33.445Z,27.67
2019-05-01T13:47:01.345Z,29.04
2019-05-01T13:49:29.576Z,25.57
2019-05-01T13:51:57.494Z,27.13
2019-05-01T13:54:25.327Z,28.98
2019-05-01T13:56:53.594Z,26.86
2019-05-01T13:59:22.196Z,27.07
2019-05-01T14:01:50.190Z,27.75
2019-05-01T14:04:21.505Z,28.82
2019-05-01T14:06:48.936Z,31.61
2019-05-01T14:09:24.728Z,29.67
2019-05-01T14:11:53.124Z,28.37
2019-05-01T14:14:21.419Z,25.60
2019-05-01T14:16:49.268Z,22.68
2019-05-01T14:19:17.521Z,22.77
2019-05-01T14:22:14.337Z,24.52
2019-05-01T14:24:46.084Z,25.32
2019-05-01T14:27:14.886Z,25.16
2019-05-01T14:29:42.816Z,25.66
2019-05-01T14:32:11.276Z,29.11
2019-05-01T14:34:39.480Z,29.46
2019-05-01T14:37:08.087Z,32.07
2019-05-01T14:39:36.366Z,30.27
2019-05-01T14:42:04.640Z,29.89
2019-05-01T14:44:37.055Z,33.67
2019-05-01T14:47:02.855Z,35.71
2019-05-01T14:49:31.495Z,37.77
2019-05-01T14:52:00.017Z,40.04
2019-05-01T14:54:28.508Z,39.69
2019-05-01T14:56:56.899Z,37.77
2019-05-01T14:59:25.107Z,37.77
2019-05-01T15:01:53.406Z,39.34
2019-05-01T15:04:22.086Z,37.16
2019-05-01T15:06:50.470Z,36.17
2019-05-01T15:09:18.826Z,38.34
2019-05-01T15:11:47.410Z,36.13
2019-05-01T15:14:26.441Z,37.73
2019-05-01T15:17:14.090Z,37.14
2019-05-01T15:19:47.349Z,36.38
2019-05-01T15:22:15.654Z,31.85
2019-05-01T15:24:44.104Z,27.77
2019-05-01T15:27:12.407Z,25.05
2019-05-01T15:29:40.665Z,23.24
2019-05-01T15:32:09.311Z,25.26
2019-05-01T15:34:37.955Z,27.89
2019-05-01T15:37:05.832Z,26.60
2019-05-01T15:39:59.471Z,25.68
2019-05-01T15:42:43.992Z,24.75
2019-05-01T15:45:11.605Z,22.06
2019-05-01T15:47:40.296Z,22.88
2019-05-01T15:50:08.820Z,26.15
2019-05-01T15:52:37.071Z,27.68
2019-05-01T15:55:06.427Z,27.66
2019-05-01T15:57:34.545Z,28.31
2019-05-01T16:00:03.149Z,27.68
2019-05-01T16:02:31.016Z,28.62
2019-05-01T16:04:58.981Z,30.98
2019-05-01T16:07:27.182Z,30.25
2019-05-01T16:09:55.441Z,31.63
2019-05-01T16:12:39.980Z,29.98
2019-05-01T16:15:11.180Z,30.98
2019-05-01T16:17:39.738Z,29.72
2019-05-01T16:20:08.127Z,29.72
2019-05-01T16:22:36.820Z,32.16
2019-05-01T16:25:05.250Z,30.85
2019-05-01T16:27:33.575Z,30.18
2019-05-01T16:30:01.765Z,29.66
2019-05-01T16:32:30.369Z,31.55
2019-05-01T16:34:58.532Z,32.34
2019-05-01T16:37:26.924Z,33.53
2019-05-01T16:40:20.598Z,30.91
2019-05-01T16:42:49.125Z,32.64
2019-05-01T16:45:17.690Z,33.31
2019-05-01T16:47:45.930Z,33.58
2019-05-01T16:50:14.500Z,32.30
2019-05-01T16:52:43.466Z,33.40
2019-05-01T16:55:12.131Z,30.27
2019-05-01T16:57:40.415Z,30.38
2019-05-01T17:00:11.210Z,31.29
2019-05-01T17:02:49.446Z,32.64
2019-05-01T17:05:28.556Z,30.78
2019-05-01T17:08:04.368Z,33.32
2019-05-01T17:10:35.282Z,34.21
2019-05-01T17:13:04.270Z,34.21
2019-05-01T17:15:36.599Z,35.22
2019-05-01T17:18:04.608Z,35.83
2019-05-01T17:20:33.236Z,37.84
2019-05-01T17:23:00.776Z,35.51
2019-05-01T17:25:29.677Z,38.42
2019-05-01T17:27:58.051Z,38.42
2019-05-01T17:30:47.894Z,38.52
2019-05-01T17:33:25.843Z,36.99
2019-05-01T17:35:54.080Z,36.92
2019-05-01T17:38:22.397Z,35.76
2019-05-01T17:40:51.933Z,36.89
2019-05-01T17:43:21.271Z,39.17
2019-05-01T17:45:49.320Z,37.84
2019-05-01T17:48:17.989Z,38.88
2019-05-01T17:50:46.469Z,40.74
2019-05-01T17:53:14.445Z,42.12
2019-05-01T17:55:42.827Z,45.66
2019-05-01T18:01:22.390Z,51.54
2019-05-01T18:04:12.875Z,53.60
2019-05-01T18:06:46.476Z,54.14
2019-05-01T18:09:15.418Z,54.19
2019-05-01T18:11:47.364Z,54.77
2019-05-01T18:14:14.071Z,53.82
2019-05-01T18:16:42.463Z,52.96
2019-05-01T18:19:10.945Z,54.72
2019-05-01T18:21:41.781Z,55.21
2019-05-01T18:24:32.842Z,55.36
2019-05-01T18:27:20.527Z,55.72
2019-05-01T18:29:53.311Z,57.53
2019-05-01T18:32:41.444Z,60.26
2019-05-01T18:35:09.027Z,60.17
2019-05-01T18:37:49.527Z,60.91
2019-05-01T18:40:25.205Z,60.97
2019-05-01T18:42:53.423Z,61.89
2019-05-01T18:45:53.386Z,62.41
2019-05-01T18:48:22.603Z,63.38
2019-05-01T18:50:54.865Z,64.93
2019-05-01T18:53:21.297Z,63.54
2019-05-01T18:55:49.520Z,63.49
2019-05-01T18:58:17.841Z,64.30
2019-05-01T19:00:45.741Z,65.21
2019-05-01T19:03:13.796Z,66.73
2019-05-01T19:05:43.128Z,66.80
2019-05-01T19:08:14.388Z,66.79
2019-05-01T19:10:44.412Z,67.42
2019-05-01T19:13:14.340Z,68.41
2019-05-01T19:15:43.278Z,68.56
2019-05-01T19:18:12.868Z,68.85
2019-05-01T19:20:42.079Z,69.75
2019-05-01T19:23:10.375Z,70.24
2019-05-01T19:25:40.168Z,70.22
2019-05-01T19:28:11.488Z,70.70
2019-05-01T19:30:40.284Z,71.13
2019-05-01T19:33:09.041Z,71.56
2019-05-01T19:35:37.721Z,72.37
2019-05-01T19:38:07.253Z,72.77
2019-05-01T19:40:35.909Z,72.97
2019-05-01T19:43:04.281Z,73.00
2019-05-01T19:45:32.661Z,73.45
2019-05-01T19:48:01.289Z,73.73
2019-05-01T19:50:29.820Z,74.08
2019-05-01T19:53:02.285Z,73.68
2019-05-01T19:55:30.817Z,73.68
2019-05-01T19:57:58.718Z,73.80
2019-05-01T20:01:04.245Z,73.26
2019-05-01T20:03:36.095Z,73.66
2019-05-01T20:06:05.689Z,74.49
2019-05-01T20:08:32.890Z,74.35
2019-05-01T20:11:01.668Z,74.37
2019-05-01T20:13:31.231Z,74.24
2019-05-01T20:15:59.714Z,74.40
2019-05-01T20:18:28.806Z,74.53
2019-05-01T20:20:57.338Z,74.51
2019-05-01T20:23:30.742Z,74.42
2019-05-01T20:25:57.276Z,74.69
2019-05-01T20:28:28.426Z,74.92
2019-05-01T20:30:56.929Z,75.31
2019-05-01T20:33:26.039Z,75.47
2019-05-01T20:35:54.767Z,76.38
2019-05-01T20:38:23.141Z,76.12
2019-05-01T20:40:51.611Z,76.31
2019-05-01T20:43:20.349Z,76.88
2019-05-01T20:45:51.310Z,77.44
2019-05-01T20:48:23.670Z,77.62
2019-05-01T20:50:50.693Z,77.12
2019-05-01T20:53:19.172Z,77.20
2019-05-01T20:55:58.682Z,77.32
2019-05-01T20:58:27.756Z,77.72
2019-05-01T21:01:01.601Z,77.44
2019-05-01T21:03:29.601Z,77.86
2019-05-01T21:06:12.886Z,78.08
2019-05-01T21:09:08.390Z,78.23
2019-05-01T21:11:42.150Z,78.20
2019-05-01T21:14:18.145Z,78.22
2019-05-01T21:16:39.745Z,78.54
2019-05-01T21:19:08.701Z,78.82
2019-05-01T21:21:37.017Z,79.17
2019-05-01T21:24:04.885Z,79.83
2019-05-01T21:26:33.936Z,79.74
2019-05-01T21:29:14.004Z,79.61
2019-05-01T21:31:44.068Z,78.70
2019-05-01T21:34:14.472Z,78.86
2019-05-01T21:36:47.643Z,79.30
2019-05-01T21:39:14.964Z,79.52
2019-05-01T21:41:43.304Z,79.20
2019-05-01T21:44:13.159Z,78.31
2019-05-01T21:46:40.897Z,77.12
2019-05-01T21:49:10.125Z,75.25
2019-05-01T21:51:42.382Z,74.02
2019-05-01T21:54:09.104Z,73.78
2019-05-01T21:56:41.263Z,73.87
2019-05-01T21:59:08.562Z,74.78
2019-05-01T22:01:36.858Z,74.96
2019-05-01T22:04:05.138Z,74.95
2019-05-01T22:06:33.392Z,75.29
2019-05-01T22:09:01.363Z,75.25
2019-05-01T22:11:33.124Z,74.82
2019-05-01T22:14:02.262Z,75.10
2019-05-01T22:16:30.332Z,75.42
2019-05-01T22:19:12.421Z,75.57
2019-05-01T22:22:15.250Z,75.83
2019-05-01T22:24:50.790Z,75.67
2019-05-01T22:27:25.375Z,75.74
2019-05-01T22:30:00.307Z,76.19
2019-05-01T22:32:35.302Z,77.06
2019-05-01T22:35:14.041Z,78.11
2019-05-01T22:37:42.655Z,79.12
2019-05-01T22:40:12.147Z,79.62
2019-05-01T22:42:40.509Z,80.56
2019-05-01T22:45:14.276Z,80.91
2019-05-01T22:47:45.993Z,80.96
2019-05-01T22:50:12.909Z,80.77
2019-05-01T22:52:40.091Z,81.04
2019-05-01T22:55:08.481Z,81.25
2019-05-01T22:57:36.765Z,80.13
2019-05-01T23:00:06.121Z,78.30
2019-05-01T23:02:38.979Z,77.81
2019-05-01T23:05:07.551Z,77.19
2019-05-01T23:07:36.098Z,76.77
2019-05-01T23:10:05.149Z,77.15
2019-05-01T23:12:33.447Z,77.23
2019-05-01T23:15:03.691Z,77.88
2019-05-01T23:17:43.342Z,78.17
2019-05-01T23:20:12.083Z,78.94
2019-05-01T23:22:40.266Z,79.62
2019-05-01T23:25:09.208Z,80.30
2019-05-01T23:27:37.846Z,80.81
2019-05-01T23:30:07.378Z,81.31
2019-05-01T23:32:35.852Z,80.59
2019-05-01T23:35:03.502Z,79.33
2019-05-01T23:37:32.640Z,78.34
2019-05-01T23:40:01.320Z,78.32
2019-05-01T23:42:29.596Z,78.34
2019-05-01T23:44:57.155Z,78.79
2019-05-01T23:47:25.305Z,79.10
2019-05-01T23:49:53.835Z,79.23
2019-05-01T23:52:21.810Z,79.56
2019-05-01T23:54:49.832Z,79.77
2019-05-01T23:57:18.882Z,80.72
2019-05-01T23:59:47.966Z,80.90
